sensor_id;sensor_type;location;lat;lon;timestamp;pressure;altitude;pressure_sealevel;temperature;humidity
79413;BME280;68863;49.528;11.010;2023-07-31T00:00:24;98268.69;;;18.69;52.44
79413;BME280;68863;49.528;11.010;2023-07-31T00:01:25;98269.06;;;18.74;51.37
79413;BME280;68863;49.528;11.010;2023-07-31T00:02:25;98266.09;;;18.77;51.33
79413;BME280;68863;49.528;11.010;2023-07-31T00:03:25;98265.03;;;18.70;51.89
79413;BME280;68863;49.528;11.010;2023-07-31T00:04:25;98262.50;;;18.68;51.88
79413;BME280;68863;49.528;11.010;2023-07-31T00:05:26;98260.31;;;18.55;51.83
79413;BME280;68863;49.528;11.010;2023-07-31T00:06:26;98265.13;;;18.60;52.31
79413;BME280;68863;49.528;11.010;2023-07-31T00:07:26;98260.16;;;18.57;52.83
79413;BME280;68863;49.528;11.010;2023-07-31T00:08:27;98259.69;;;18.61;52.14
79413;BME280;68863;49.528;11.010;2023-07-31T00:09:27;98261.41;;;18.71;52.68
79413;BME280;68863;49.528;11.010;2023-07-31T00:10:27;98253.06;;;18.66;52.13
79413;BME280;68863;49.528;11.010;2023-07-31T00:11:28;98254.53;;;18.68;52.30
79413;BME280;68863;49.528;11.010;2023-07-31T00:12:28;98252.53;;;18.62;52.63
79413;BME280;68863;49.528;11.010;2023-07-31T00:13:28;98248.22;;;18.61;52.29
79413;BME280;68863;49.528;11.010;2023-07-31T00:14:28;98249.69;;;18.64;52.70
79413;BME280;68863;49.528;11.010;2023-07-31T00:15:29;98245.72;;;18.68;52.64
79413;BME280;68863;49.528;11.010;2023-07-31T00:16:29;98252.84;;;18.59;52.77
79413;BME280;68863;49.528;11.010;2023-07-31T00:17:30;98249.56;;;18.65;52.14
79413;BME280;68863;49.528;11.010;2023-07-31T00:18:30;98248.84;;;18.55;52.71
79413;BME280;68863;49.528;11.010;2023-07-31T00:19:30;98248.53;;;18.58;52.52
79413;BME280;68863;49.528;11.010;2023-07-31T00:20:31;98241.91;;;18.62;52.31
79413;BME280;68863;49.528;11.010;2023-07-31T00:21:31;98244.06;;;18.67;51.81
79413;BME280;68863;49.528;11.010;2023-07-31T00:22:31;98244.31;;;18.73;51.42
79413;BME280;68863;49.528;11.010;2023-07-31T00:23:31;98244.63;;;18.70;51.40
79413;BME280;68863;49.528;11.010;2023-07-31T00:24:32;98240.63;;;18.74;51.41
79413;BME280;68863;49.528;11.010;2023-07-31T00:25:32;98241.66;;;18.73;51.63
79413;BME280;68863;49.528;11.010;2023-07-31T00:26:32;98239.59;;;18.67;51.91
79413;BME280;68863;49.528;11.010;2023-07-31T00:27:33;98240.31;;;18.77;51.29
79413;BME280;68863;49.528;11.010;2023-07-31T00:28:33;98243.63;;;18.71;52.04
79413;BME280;68863;49.528;11.010;2023-07-31T00:29:33;98245.44;;;18.71;51.95
79413;BME280;68863;49.528;11.010;2023-07-31T00:30:33;98244.97;;;18.75;51.93
79413;BME280;68863;49.528;11.010;2023-07-31T00:31:34;98241.47;;;18.75;52.16
79413;BME280;68863;49.528;11.010;2023-07-31T00:32:34;98249.94;;;18.70;52.14
79413;BME280;68863;49.528;11.010;2023-07-31T00:33:34;98244.97;;;18.75;52.11
79413;BME280;68863;49.528;11.010;2023-07-31T00:34:35;98240.97;;;18.79;52.30
79413;BME280;68863;49.528;11.010;2023-07-31T00:35:35;98245.13;;;18.74;52.41
79413;BME280;68863;49.528;11.010;2023-07-31T00:36:35;98251.88;;;18.68;52.26
79413;BME280;68863;49.528;11.010;2023-07-31T00:37:36;98248.44;;;18.76;51.81
79413;BME280;68863;49.528;11.010;2023-07-31T00:38:36;98248.00;;;18.80;51.67
79413;BME280;68863;49.528;11.010;2023-07-31T00:39:36;98244.00;;;18.84;51.37
79413;BME280;68863;49.528;11.010;2023-07-31T00:40:37;98240.66;;;18.82;51.25
79413;BME280;68863;49.528;11.010;2023-07-31T00:41:37;98247.66;;;18.83;51.10
79413;BME280;68863;49.528;11.010;2023-07-31T00:42:37;98237.19;;;18.82;50.61
79413;BME280;68863;49.528;11.010;2023-07-31T00:43:38;98252.31;;;18.81;51.38
79413;BME280;68863;49.528;11.010;2023-07-31T00:44:38;98245.66;;;18.77;51.69
79413;BME280;68863;49.528;11.010;2023-07-31T00:45:38;98238.16;;;18.73;51.25
79413;BME280;68863;49.528;11.010;2023-07-31T00:46:39;98239.31;;;18.78;51.63
79413;BME280;68863;49.528;11.010;2023-07-31T00:47:39;98239.31;;;18.70;51.20
79413;BME280;68863;49.528;11.010;2023-07-31T00:48:40;98235.00;;;18.77;51.45
79413;BME280;68863;49.528;11.010;2023-07-31T00:49:40;98238.59;;;18.68;51.34
79413;BME280;68863;49.528;11.010;2023-07-31T00:50:41;98244.66;;;18.78;51.38
79413;BME280;68863;49.528;11.010;2023-07-31T00:51:41;98238.28;;;18.71;51.28
79413;BME280;68863;49.528;11.010;2023-07-31T00:52:42;98244.63;;;18.70;51.74
79413;BME280;68863;49.528;11.010;2023-07-31T00:53:42;98238.16;;;18.73;52.44
79413;BME280;68863;49.528;11.010;2023-07-31T00:54:43;98236.47;;;18.72;52.27
79413;BME280;68863;49.528;11.010;2023-07-31T00:55:44;98235.00;;;18.77;51.52
79413;BME280;68863;49.528;11.010;2023-07-31T00:56:46;98237.81;;;18.76;51.24
79413;BME280;68863;49.528;11.010;2023-07-31T00:57:49;98233.50;;;18.75;52.13
79413;BME280;68863;49.528;11.010;2023-07-31T00:58:50;98242.94;;;18.69;52.05
79413;BME280;68863;49.528;11.010;2023-07-31T00:59:50;98246.06;;;18.65;52.02
79413;BME280;68863;49.528;11.010;2023-07-31T01:00:51;98241.25;;;18.68;51.58
79413;BME280;68863;49.528;11.010;2023-07-31T01:01:51;98244.13;;;18.75;51.44
79413;BME280;68863;49.528;11.010;2023-07-31T01:02:52;98235.78;;;18.70;51.94
79413;BME280;68863;49.528;11.010;2023-07-31T01:03:52;98241.47;;;18.75;51.79
79413;BME280;68863;49.528;11.010;2023-07-31T01:04:56;98236.84;;;18.77;51.79
79413;BME280;68863;49.528;11.010;2023-07-31T01:06:24;98230.47;;;18.70;52.13
79413;BME280;68863;49.528;11.010;2023-07-31T01:07:39;98238.44;;;18.70;52.03
79413;BME280;68863;49.528;11.010;2023-07-31T01:08:54;98234.75;;;18.63;51.93
79413;BME280;68863;49.528;11.010;2023-07-31T01:10:19;98228.13;;;18.67;52.16
79413;BME280;68863;49.528;11.010;2023-07-31T01:11:46;98228.66;;;18.70;52.39
79413;BME280;68863;49.528;11.010;2023-07-31T01:12:50;98226.28;;;18.67;52.33
79413;BME280;68863;49.528;11.010;2023-07-31T01:13:51;98229.94;;;18.66;52.03
79413;BME280;68863;49.528;11.010;2023-07-31T01:16:02;98233.75;;;18.64;52.05
79413;BME280;68863;49.528;11.010;2023-07-31T01:17:02;98222.13;;;18.65;52.03
79413;BME280;68863;49.528;11.010;2023-07-31T01:18:03;98224.16;;;18.71;51.69
79413;BME280;68863;49.528;11.010;2023-07-31T01:19:03;98222.78;;;18.67;52.08
79413;BME280;68863;49.528;11.010;2023-07-31T01:20:17;98222.19;;;18.73;51.82
79413;BME280;68863;49.528;11.010;2023-07-31T01:21:21;98222.34;;;18.71;51.88
79413;BME280;68863;49.528;11.010;2023-07-31T01:22:33;98223.03;;;18.73;51.62
79413;BME280;68863;49.528;11.010;2023-07-31T01:23:54;98223.03;;;18.73;51.88
79413;BME280;68863;49.528;11.010;2023-07-31T01:25:20;98215.06;;;18.73;51.88
79413;BME280;68863;49.528;11.010;2023-07-31T01:26:32;98226.97;;;18.69;51.94
79413;BME280;68863;49.528;11.010;2023-07-31T01:27:44;98220.81;;;18.69;52.45
79413;BME280;68863;49.528;11.010;2023-07-31T01:29:01;98221.78;;;18.59;52.38
79413;BME280;68863;49.528;11.010;2023-07-31T01:30:09;98219.97;;;18.68;52.74
79413;BME280;68863;49.528;11.010;2023-07-31T01:31:17;98218.63;;;18.64;52.37
79413;BME280;68863;49.528;11.010;2023-07-31T01:32:21;98217.47;;;18.67;52.29
79413;BME280;68863;49.528;11.010;2023-07-31T01:33:24;98215.63;;;18.59;52.48
79413;BME280;68863;49.528;11.010;2023-07-31T01:34:26;98210.47;;;18.57;53.05
79413;BME280;68863;49.528;11.010;2023-07-31T01:35:26;98218.94;;;18.53;52.68
79413;BME280;68863;49.528;11.010;2023-07-31T01:36:27;98214.63;;;18.60;53.20
79413;BME280;68863;49.528;11.010;2023-07-31T01:37:29;98220.31;;;18.65;52.83
79413;BME280;68863;49.528;11.010;2023-07-31T01:38:30;98207.31;;;18.62;53.19
79413;BME280;68863;49.528;11.010;2023-07-31T01:39:30;98214.63;;;18.60;52.57
79413;BME280;68863;49.528;11.010;2023-07-31T01:40:30;98211.50;;;18.65;52.48
79413;BME280;68863;49.528;11.010;2023-07-31T01:41:31;98215.00;;;18.65;52.43
79413;BME280;68863;49.528;11.010;2023-07-31T01:42:31;98204.50;;;18.64;52.50
79413;BME280;68863;49.528;11.010;2023-07-31T01:43:31;98210.63;;;18.56;53.15
79413;BME280;68863;49.528;11.010;2023-07-31T01:44:32;98216.22;;;18.45;53.32
79413;BME280;68863;49.528;11.010;2023-07-31T01:45:32;98207.09;;;18.47;53.52
79413;BME280;68863;49.528;11.010;2023-07-31T01:46:33;98210.59;;;18.48;53.27
79413;BME280;68863;49.528;11.010;2023-07-31T01:47:33;98207.28;;;18.46;53.44
79413;BME280;68863;49.528;11.010;2023-07-31T01:48:33;98217.91;;;18.46;53.37
79413;BME280;68863;49.528;11.010;2023-07-31T01:49:36;98204.47;;;18.55;53.26
79413;BME280;68863;49.528;11.010;2023-07-31T01:50:37;98203.97;;;18.52;52.62
79413;BME280;68863;49.528;11.010;2023-07-31T01:51:37;98202.31;;;18.59;52.90
79413;BME280;68863;49.528;11.010;2023-07-31T01:52:37;98199.66;;;18.59;53.20
79413;BME280;68863;49.528;11.010;2023-07-31T01:53:38;98198.84;;;18.58;52.71
79413;BME280;68863;49.528;11.010;2023-07-31T01:54:38;98195.50;;;18.56;52.84
79413;BME280;68863;49.528;11.010;2023-07-31T01:55:38;98194.50;;;18.49;52.76
79413;BME280;68863;49.528;11.010;2023-07-31T01:56:39;98193.84;;;18.55;52.86
79413;BME280;68863;49.528;11.010;2023-07-31T01:57:39;98191.19;;;18.55;52.56
79413;BME280;68863;49.528;11.010;2023-07-31T01:58:39;98184.38;;;18.53;53.33
79413;BME280;68863;49.528;11.010;2023-07-31T01:59:39;98185.53;;;18.58;52.75
79413;BME280;68863;49.528;11.010;2023-07-31T02:00:40;98190.69;;;18.60;52.81
79413;BME280;68863;49.528;11.010;2023-07-31T02:01:40;98185.19;;;18.53;52.66
79413;BME280;68863;49.528;11.010;2023-07-31T02:02:40;98188.50;;;18.55;53.53
79413;BME280;68863;49.528;11.010;2023-07-31T02:03:41;98179.41;;;18.58;53.13
79413;BME280;68863;49.528;11.010;2023-07-31T02:04:42;98187.38;;;18.58;53.31
79413;BME280;68863;49.528;11.010;2023-07-31T02:05:46;98179.53;;;18.56;53.36
79413;BME280;68863;49.528;11.010;2023-07-31T02:06:46;98178.91;;;18.63;52.53
79413;BME280;68863;49.528;11.010;2023-07-31T02:07:46;98172.44;;;18.65;52.49
79413;BME280;68863;49.528;11.010;2023-07-31T02:08:47;98173.09;;;18.67;52.30
79413;BME280;68863;49.528;11.010;2023-07-31T02:09:47;98178.72;;;18.64;52.77
79413;BME280;68863;49.528;11.010;2023-07-31T02:10:48;98170.25;;;18.60;52.54
79413;BME280;68863;49.528;11.010;2023-07-31T02:11:48;98171.09;;;18.61;52.70
79413;BME280;68863;49.528;11.010;2023-07-31T02:12:48;98173.25;;;18.57;53.04
79413;BME280;68863;49.528;11.010;2023-07-31T02:13:49;98173.06;;;18.59;52.79
79413;BME280;68863;49.528;11.010;2023-07-31T02:14:49;98171.94;;;18.61;52.76
79413;BME280;68863;49.528;11.010;2023-07-31T02:15:49;98172.44;;;18.65;53.23
79413;BME280;68863;49.528;11.010;2023-07-31T02:16:50;98167.13;;;18.65;52.77
79413;BME280;68863;49.528;11.010;2023-07-31T02:17:50;98170.16;;;18.70;53.03
79413;BME280;68863;49.528;11.010;2023-07-31T02:18:51;98167.63;;;18.69;52.60
79413;BME280;68863;49.528;11.010;2023-07-31T02:19:51;98160.47;;;18.61;52.64
79413;BME280;68863;49.528;11.010;2023-07-31T02:20:52;98172.44;;;18.65;52.99
79413;BME280;68863;49.528;11.010;2023-07-31T02:21:53;98165.13;;;18.67;52.85
79413;BME280;68863;49.528;11.010;2023-07-31T02:22:54;98159.50;;;18.70;52.69
79413;BME280;68863;49.528;11.010;2023-07-31T02:23:54;98159.97;;;18.66;53.30
79413;BME280;68863;49.528;11.010;2023-07-31T02:24:55;98164.44;;;18.57;53.52
79413;BME280;68863;49.528;11.010;2023-07-31T02:25:55;98163.09;;;18.53;53.73
79413;BME280;68863;49.528;11.010;2023-07-31T02:26:55;98164.09;;;18.60;53.55
79413;BME280;68863;49.528;11.010;2023-07-31T02:27:56;98170.75;;;18.64;53.04
79413;BME280;68863;49.528;11.010;2023-07-31T02:28:56;98156.13;;;18.68;52.29
79413;BME280;68863;49.528;11.010;2023-07-31T02:29:56;98158.16;;;18.66;52.73
79413;BME280;68863;49.528;11.010;2023-07-31T02:30:59;98161.13;;;18.63;52.64
79413;BME280;68863;49.528;11.010;2023-07-31T02:31:59;98162.78;;;18.64;52.69
79413;BME280;68863;49.528;11.010;2023-07-31T02:32:59;98163.16;;;18.69;52.51
79413;BME280;68863;49.528;11.010;2023-07-31T02:34:00;98167.31;;;18.72;52.74
79413;BME280;68863;49.528;11.010;2023-07-31T02:35:00;98163.97;;;18.70;52.88
79413;BME280;68863;49.528;11.010;2023-07-31T02:36:00;98165.13;;;18.67;53.12
79413;BME280;68863;49.528;11.010;2023-07-31T02:38:03;98161.63;;;18.67;53.59
79413;BME280;68863;49.528;11.010;2023-07-31T02:39:04;98163.13;;;18.61;54.29
79413;BME280;68863;49.528;11.010;2023-07-31T02:40:04;98160.28;;;18.54;54.21
79413;BME280;68863;49.528;11.010;2023-07-31T02:41:05;98162.41;;;18.51;53.97
79413;BME280;68863;49.528;11.010;2023-07-31T02:42:05;98157.81;;;18.61;53.97
79413;BME280;68863;49.528;11.010;2023-07-31T02:43:05;98159.97;;;18.57;54.39
79413;BME280;68863;49.528;11.010;2023-07-31T02:44:06;98165.94;;;18.59;53.79
79413;BME280;68863;49.528;11.010;2023-07-31T02:45:06;98166.44;;;18.63;53.36
79413;BME280;68863;49.528;11.010;2023-07-31T02:46:07;98167.44;;;18.62;53.08
79413;BME280;68863;49.528;11.010;2023-07-31T02:47:07;98163.78;;;18.63;53.45
79413;BME280;68863;49.528;11.010;2023-07-31T02:48:07;98164.47;;;18.65;53.32
79413;BME280;68863;49.528;11.010;2023-07-31T02:49:08;98165.28;;;18.57;53.92
79413;BME280;68863;49.528;11.010;2023-07-31T02:50:08;98168.06;;;18.56;53.90
79413;BME280;68863;49.528;11.010;2023-07-31T02:51:09;98169.91;;;18.55;53.63
79413;BME280;68863;49.528;11.010;2023-07-31T02:52:09;98166.09;;;18.58;53.95
79413;BME280;68863;49.528;11.010;2023-07-31T02:53:09;98164.75;;;18.54;54.02
79413;BME280;68863;49.528;11.010;2023-07-31T02:54:10;98159.75;;;18.51;54.16
79413;BME280;68863;49.528;11.010;2023-07-31T02:55:10;98160.28;;;18.63;53.78
79413;BME280;68863;49.528;11.010;2023-07-31T02:56:11;98161.09;;;18.55;54.50
79413;BME280;68863;49.528;11.010;2023-07-31T02:57:11;98161.09;;;18.55;54.68
79413;BME280;68863;49.528;11.010;2023-07-31T02:58:11;98161.72;;;18.49;54.38
79413;BME280;68863;49.528;11.010;2023-07-31T02:59:11;98165.72;;;18.45;54.57
79413;BME280;68863;49.528;11.010;2023-07-31T03:00:12;98162.06;;;18.46;54.29
79413;BME280;68863;49.528;11.010;2023-07-31T03:01:12;98157.41;;;18.40;54.50
79413;BME280;68863;49.528;11.010;2023-07-31T03:02:12;98150.28;;;18.48;54.96
79413;BME280;68863;49.528;11.010;2023-07-31T03:03:13;98155.75;;;18.47;54.84
79413;BME280;68863;49.528;11.010;2023-07-31T03:04:13;98155.75;;;18.47;54.86
79413;BME280;68863;49.528;11.010;2023-07-31T03:05:13;98153.59;;;18.42;54.79
79413;BME280;68863;49.528;11.010;2023-07-31T03:06:14;98151.09;;;18.49;54.54
79413;BME280;68863;49.528;11.010;2023-07-31T03:07:14;98149.44;;;18.48;54.77
79413;BME280;68863;49.528;11.010;2023-07-31T03:08:14;98151.44;;;18.46;54.85
79413;BME280;68863;49.528;11.010;2023-07-31T03:09:14;98145.78;;;18.49;54.51
79413;BME280;68863;49.528;11.010;2023-07-31T03:10:15;98145.13;;;18.47;54.67
79413;BME280;68863;49.528;11.010;2023-07-31T03:11:15;98147.09;;;18.45;54.76
79413;BME280;68863;49.528;11.010;2023-07-31T03:12:15;98150.28;;;18.48;54.87
79413;BME280;68863;49.528;11.010;2023-07-31T03:13:16;98153.22;;;18.37;54.37
79413;BME280;68863;49.528;11.010;2023-07-31T03:14:16;98151.09;;;18.49;54.68
79413;BME280;68863;49.528;11.010;2023-07-31T03:15:16;98159.72;;;18.43;55.24
79413;BME280;68863;49.528;11.010;2023-07-31T03:16:16;98159.06;;;18.49;54.61
79413;BME280;68863;49.528;11.010;2023-07-31T03:17:17;98155.97;;;18.53;54.26
79413;BME280;68863;49.528;11.010;2023-07-31T03:18:17;98155.28;;;18.51;54.79
79413;BME280;68863;49.528;11.010;2023-07-31T03:19:17;98152.78;;;18.50;54.85
79413;BME280;68863;49.528;11.010;2023-07-31T03:20:18;98152.09;;;18.48;55.06
79413;BME280;68863;49.528;11.010;2023-07-31T03:21:18;98153.28;;;18.53;54.68
79413;BME280;68863;49.528;11.010;2023-07-31T03:22:18;98156.25;;;18.42;54.60
79413;BME280;68863;49.528;11.010;2023-07-31T03:23:19;98154.22;;;18.36;55.16
79413;BME280;68863;49.528;11.010;2023-07-31T03:24:19;98156.25;;;18.42;55.13
79413;BME280;68863;49.528;11.010;2023-07-31T03:25:19;98148.41;;;18.41;54.95
79413;BME280;68863;49.528;11.010;2023-07-31T03:26:20;98146.63;;;18.41;55.94
79413;BME280;68863;49.528;11.010;2023-07-31T03:27:20;98153.69;;;18.32;55.79
79413;BME280;68863;49.528;11.010;2023-07-31T03:28:20;98159.41;;;18.38;55.80
79413;BME280;68863;49.528;11.010;2023-07-31T03:29:21;98154.41;;;18.34;56.32
79413;BME280;68863;49.528;11.010;2023-07-31T03:30:21;98153.69;;;18.32;56.45
79413;BME280;68863;49.528;11.010;2023-07-31T03:31:21;98150.09;;;18.42;55.96
79413;BME280;68863;49.528;11.010;2023-07-31T03:32:21;98153.06;;;18.39;55.79
79413;BME280;68863;49.528;11.010;2023-07-31T03:33:22;98148.25;;;18.34;55.80
79413;BME280;68863;49.528;11.010;2023-07-31T03:34:22;98149.06;;;18.34;56.06
79413;BME280;68863;49.528;11.010;2023-07-31T03:35:22;98150.22;;;18.32;56.32
79413;BME280;68863;49.528;11.010;2023-07-31T03:36:23;98147.91;;;18.37;56.12
79413;BME280;68863;49.528;11.010;2023-07-31T03:37:23;98152.84;;;18.24;56.11
79413;BME280;68863;49.528;11.010;2023-07-31T03:38:23;98159.03;;;18.32;56.24
79413;BME280;68863;49.528;11.010;2023-07-31T03:39:24;98155.84;;;18.29;55.75
79413;BME280;68863;49.528;11.010;2023-07-31T03:40:24;98150.69;;;18.27;56.40
79413;BME280;68863;49.528;11.010;2023-07-31T03:41:24;98159.38;;;18.29;56.06
79413;BME280;68863;49.528;11.010;2023-07-31T03:42:25;98161.38;;;18.35;56.03
79413;BME280;68863;49.528;11.010;2023-07-31T03:43:25;98152.22;;;18.30;55.86
79413;BME280;68863;49.528;11.010;2023-07-31T03:44:25;98155.34;;;18.25;55.96
79413;BME280;68863;49.528;11.010;2023-07-31T03:45:25;98152.66;;;18.17;55.77
79413;BME280;68863;49.528;11.010;2023-07-31T03:46:26;98157.97;;;18.17;56.05
79413;BME280;68863;49.528;11.010;2023-07-31T03:47:26;98162.03;;;18.29;55.58
79413;BME280;68863;49.528;11.010;2023-07-31T03:48:27;98166.47;;;18.29;56.07
79413;BME280;68863;49.528;11.010;2023-07-31T03:49:27;98164.47;;;18.23;56.68
79413;BME280;68863;49.528;11.010;2023-07-31T03:50:27;98157.78;;;18.10;56.29
79413;BME280;68863;49.528;11.010;2023-07-31T03:51:27;98156.75;;;18.03;56.39
79413;BME280;68863;49.528;11.010;2023-07-31T03:52:28;98157.44;;;18.13;56.38
79413;BME280;68863;49.528;11.010;2023-07-31T03:53:28;98159.97;;;18.15;56.45
79413;BME280;68863;49.528;11.010;2023-07-31T03:54:28;98154.47;;;18.17;56.44
79413;BME280;68863;49.528;11.010;2023-07-31T03:55:29;98157.34;;;18.23;55.80
79413;BME280;68863;49.528;11.010;2023-07-31T03:56:29;98162.69;;;18.31;55.71
79413;BME280;68863;49.528;11.010;2023-07-31T03:57:29;98163.03;;;18.36;55.36
79413;BME280;68863;49.528;11.010;2023-07-31T03:58:30;98157.34;;;18.23;55.97
79413;BME280;68863;49.528;11.010;2023-07-31T03:59:30;98152.75;;;18.33;55.57
79413;BME280;68863;49.528;11.010;2023-07-31T04:00:30;98163.03;;;18.36;56.44
79413;BME280;68863;49.528;11.010;2023-07-31T04:01:31;98157.53;;;18.30;56.54
79413;BME280;68863;49.528;11.010;2023-07-31T04:02:31;98163.69;;;18.30;56.85
79413;BME280;68863;49.528;11.010;2023-07-31T04:03:31;98157.34;;;18.23;56.75
79413;BME280;68863;49.528;11.010;2023-07-31T04:04:31;98150.38;;;18.22;57.12
79413;BME280;68863;49.528;11.010;2023-07-31T04:05:32;98165.63;;;18.20;56.75
79413;BME280;68863;49.528;11.010;2023-07-31T04:06:32;98158.47;;;18.21;56.68
79413;BME280;68863;49.528;11.010;2023-07-31T04:07:33;98163.16;;;18.27;56.85
79413;BME280;68863;49.528;11.010;2023-07-31T04:08:33;98153.03;;;18.22;57.01
79413;BME280;68863;49.528;11.010;2023-07-31T04:09:33;98156.66;;;18.21;55.90
79413;BME280;68863;49.528;11.010;2023-07-31T04:10:33;98153.06;;;18.30;56.13
79413;BME280;68863;49.528;11.010;2023-07-31T04:11:34;98149.38;;;18.31;56.40
79413;BME280;68863;49.528;11.010;2023-07-31T04:12:34;98149.66;;;18.20;56.85
79413;BME280;68863;49.528;11.010;2023-07-31T04:13:34;98141.69;;;18.20;56.12
79413;BME280;68863;49.528;11.010;2023-07-31T04:14:35;98151.19;;;18.23;55.96
79413;BME280;68863;49.528;11.010;2023-07-31T04:15:35;98143.69;;;18.18;56.39
79413;BME280;68863;49.528;11.010;2023-07-31T04:16:35;98153.69;;;18.24;56.25
79413;BME280;68863;49.528;11.010;2023-07-31T04:17:35;98152.69;;;18.25;56.02
79413;BME280;68863;49.528;11.010;2023-07-31T04:18:36;98147.53;;;18.24;55.96
79413;BME280;68863;49.528;11.010;2023-07-31T04:19:36;98146.06;;;18.29;55.88
79413;BME280;68863;49.528;11.010;2023-07-31T04:20:36;98147.41;;;18.33;55.56
79413;BME280;68863;49.528;11.010;2023-07-31T04:21:37;98149.38;;;18.31;55.04
79413;BME280;68863;49.528;11.010;2023-07-31T04:22:37;98147.34;;;18.25;55.27
79413;BME280;68863;49.528;11.010;2023-07-31T04:23:38;98146.00;;;18.21;55.50
79413;BME280;68863;49.528;11.010;2023-07-31T04:24:38;98149.88;;;18.27;56.03
79413;BME280;68863;49.528;11.010;2023-07-31T04:25:38;98150.53;;;18.29;56.29
79413;BME280;68863;49.528;11.010;2023-07-31T04:26:38;98155.50;;;18.24;56.02
79413;BME280;68863;49.528;11.010;2023-07-31T04:27:39;98151.19;;;18.23;56.03
79413;BME280;68863;49.528;11.010;2023-07-31T04:28:40;98153.84;;;18.23;55.89
79413;BME280;68863;49.528;11.010;2023-07-31T04:29:40;98154.16;;;18.20;56.24
79413;BME280;68863;49.528;11.010;2023-07-31T04:30:42;98151.19;;;18.23;56.16
79413;BME280;68863;49.528;11.010;2023-07-31T04:31:42;98152.66;;;18.17;56.04
79413;BME280;68863;49.528;11.010;2023-07-31T04:32:43;98146.38;;;18.18;55.50
79413;BME280;68863;49.528;11.010;2023-07-31T04:33:43;98153.66;;;18.16;56.01
79413;BME280;68863;49.528;11.010;2023-07-31T04:34:43;98157.31;;;18.15;55.79
79413;BME280;68863;49.528;11.010;2023-07-31T04:35:53;98152.66;;;18.17;56.19
79413;BME280;68863;49.528;11.010;2023-07-31T04:36:53;98155.47;;;18.16;56.05
79413;BME280;68863;49.528;11.010;2023-07-31T04:37:54;98152.47;;;18.10;55.88
79413;BME280;68863;49.528;11.010;2023-07-31T04:38:54;98147.84;;;18.21;56.46
79413;BME280;68863;49.528;11.010;2023-07-31T04:39:54;98146.16;;;18.11;56.40
79413;BME280;68863;49.528;11.010;2023-07-31T04:40:54;98142.00;;;18.17;56.14
79413;BME280;68863;49.528;11.010;2023-07-31T04:41:55;98145.50;;;18.18;56.04
79413;BME280;68863;49.528;11.010;2023-07-31T04:42:55;98146.25;;;18.02;56.62
79413;BME280;68863;49.528;11.010;2023-07-31T04:43:55;98145.28;;;18.03;56.39
79413;BME280;68863;49.528;11.010;2023-07-31T04:44:56;98142.25;;;17.98;56.73
79413;BME280;68863;49.528;11.010;2023-07-31T04:45:56;98133.31;;;17.99;56.79
79413;BME280;68863;49.528;11.010;2023-07-31T04:46:56;98137.47;;;18.01;57.19
79413;BME280;68863;49.528;11.010;2023-07-31T04:47:56;98131.84;;;18.04;57.26
79413;BME280;68863;49.528;11.010;2023-07-31T04:48:57;98138.19;;;18.11;56.54
79413;BME280;68863;49.528;11.010;2023-07-31T04:49:57;98133.53;;;18.13;56.24
79413;BME280;68863;49.528;11.010;2023-07-31T04:50:57;98131.66;;;18.06;56.68
79413;BME280;68863;49.528;11.010;2023-07-31T04:51:58;98121.72;;;18.08;56.82
79413;BME280;68863;49.528;11.010;2023-07-31T04:52:58;98128.03;;;18.07;56.87
79413;BME280;68863;49.528;11.010;2023-07-31T04:53:58;98119.91;;;18.08;56.62
79413;BME280;68863;49.528;11.010;2023-07-31T04:54:58;98113.75;;;18.08;56.99
79413;BME280;68863;49.528;11.010;2023-07-31T04:55:59;98117.72;;;18.04;57.41
79413;BME280;68863;49.528;11.010;2023-07-31T04:56:59;98119.38;;;18.05;57.08
79413;BME280;68863;49.528;11.010;2023-07-31T04:57:59;98111.06;;;18.00;57.16
79413;BME280;68863;49.528;11.010;2023-07-31T04:59:00;98114.91;;;18.05;56.86
79413;BME280;68863;49.528;11.010;2023-07-31T05:00:00;98113.41;;;18.03;56.85
79413;BME280;68863;49.528;11.010;2023-07-31T05:01:00;98116.72;;;18.05;56.98
79413;BME280;68863;49.528;11.010;2023-07-31T05:02:00;98120.69;;;18.01;57.09
79413;BME280;68863;49.528;11.010;2023-07-31T05:03:01;98118.91;;;18.09;57.12
79413;BME280;68863;49.528;11.010;2023-07-31T05:04:01;98115.59;;;18.07;56.52
79413;BME280;68863;49.528;11.010;2023-07-31T05:05:01;98119.75;;;18.10;56.73
79413;BME280;68863;49.528;11.010;2023-07-31T05:06:02;98118.09;;;18.17;55.74
79413;BME280;68863;49.528;11.010;2023-07-31T05:07:02;98118.28;;;18.16;55.96
79413;BME280;68863;49.528;11.010;2023-07-31T05:08:02;98126.44;;;18.22;55.75
79413;BME280;68863;49.528;11.010;2023-07-31T05:09:03;98131.75;;;18.22;56.18
79413;BME280;68863;49.528;11.010;2023-07-31T05:10:03;98131.41;;;18.25;55.76
79413;BME280;68863;49.528;11.010;2023-07-31T05:11:03;98126.59;;;18.21;56.10
79413;BME280;68863;49.528;11.010;2023-07-31T05:12:04;98132.09;;;18.27;55.21
79413;BME280;68863;49.528;11.010;2023-07-31T05:13:05;98134.06;;;18.25;55.40
79413;BME280;68863;49.528;11.010;2023-07-31T05:14:06;98141.72;;;18.28;55.41
79413;BME280;68863;49.528;11.010;2023-07-31T05:15:06;98140.59;;;18.31;54.65
79413;BME280;68863;49.528;11.010;2023-07-31T05:16:07;98141.59;;;18.30;54.86
79413;BME280;68863;49.528;11.010;2023-07-31T05:17:07;98146.91;;;18.30;55.50
79413;BME280;68863;49.528;11.010;2023-07-31T05:18:07;98139.59;;;18.32;55.70
79413;BME280;68863;49.528;11.010;2023-07-31T05:19:08;98139.59;;;18.32;55.52
79413;BME280;68863;49.528;11.010;2023-07-31T05:20:08;98137.06;;;18.22;55.57
79413;BME280;68863;49.528;11.010;2023-07-31T05:21:09;98140.88;;;18.20;55.15
79413;BME280;68863;49.528;11.010;2023-07-31T05:22:09;98136.91;;;18.24;55.92